Time;durP1;ratioP1;P1;durP2;ratioP2;P2;SDS_P1;SDS_P2;PMS_P1;PMS_P2;Temp;Humidity;BMP_temperature;BMP_pressure;BME280_temperature;BME280_humidity;BME280_pressure;Samples;Min_cycle;Max_cycle;Signal;HPM_P1;HPM_P2
2021/03/21 00:00:52;;;;;;;8.63;6.28;;;-4.30;63.00;;;;;;5127358;28;20130;-70
2021/03/21 00:03:24;;;;;;;9.15;5.43;;;-4.20;63.70;;;;;;5130299;28;20046;-68
2021/03/21 00:05:55;;;;;;;7.85;5.63;;;-4.10;64.20;;;;;;5124797;28;20039;-71
2021/03/21 00:08:29;;;;;;;7.68;5.75;;;-4.10;64.40;;;;;;5125658;28;20039;-69
2021/03/21 00:11:06;;;;;;;7.95;5.82;;;-4.10;62.10;;;;;;5128939;28;20382;-69
2021/03/21 00:13:37;;;;;;;8.20;5.50;;;-4.00;62.40;;;;;;5123298;28;20727;-68
2021/03/21 00:16:08;;;;;;;8.18;5.80;;;-4.00;61.50;;;;;;5122572;28;20409;-70
2021/03/21 00:18:41;;;;;;;10.30;6.15;;;-4.10;61.80;;;;;;5124323;28;20123;-69
2021/03/21 00:21:14;;;;;;;9.73;5.95;;;-4.00;62.20;;;;;;5138794;28;20122;-70
2021/03/21 00:23:45;;;;;;;8.18;6.03;;;-4.10;62.20;;;;;;5125400;28;20043;-69
2021/03/21 00:26:17;;;;;;;8.02;5.72;;;-4.10;63.00;;;;;;5121669;28;20075;-69
2021/03/21 00:28:49;;;;;;;9.43;6.03;;;-4.10;63.40;;;;;;5126078;28;20659;-69
2021/03/21 00:31:21;;;;;;;7.90;5.95;;;-4.00;62.70;;;;;;5121502;28;20056;-70
2021/03/21 00:33:52;;;;;;;7.35;5.43;;;-4.00;62.90;;;;;;5126625;28;20051;-70
2021/03/21 00:36:24;;;;;;;8.63;6.10;;;-4.00;62.30;;;;;;5127037;28;20059;-70
2021/03/21 00:38:55;;;;;;;7.53;5.45;;;-3.90;62.50;;;;;;5123142;28;20133;-70
2021/03/21 00:41:28;;;;;;;7.95;6.13;;;-3.90;62.60;;;;;;5123066;28;20055;-70
2021/03/21 00:44:00;;;;;;;7.82;5.90;;;-3.80;63.20;;;;;;5124527;28;20039;-69
2021/03/21 00:46:32;;;;;;;7.88;5.78;;;-3.80;62.90;;;;;;5124966;28;20229;-69
2021/03/21 00:49:04;;;;;;;7.22;5.35;;;-3.80;62.50;;;;;;5123126;28;20047;-69
2021/03/21 00:51:35;;;;;;;7.63;5.68;;;-3.80;62.80;;;;;;5127940;28;20046;-69
2021/03/21 00:54:07;;;;;;;7.75;6.10;;;-3.80;62.50;;;;;;5127275;28;20611;-70
2021/03/21 00:56:40;;;;;;;7.60;5.78;;;-3.80;62.60;;;;;;5122803;28;20071;-69
2021/03/21 00:59:12;;;;;;;8.10;6.18;;;-3.80;62.60;;;;;;5124301;28;20047;-70
2021/03/21 01:01:43;;;;;;;8.05;6.35;;;-3.80;62.30;;;;;;5122040;28;20518;-68
2021/03/21 01:04:15;;;;;;;7.32;5.45;;;-3.80;61.30;;;;;;5124317;28;20803;-69
2021/03/21 01:06:47;;;;;;;7.65;5.65;;;-3.90;61.50;;;;;;5121893;28;20047;-69
2021/03/21 01:09:18;;;;;;;9.70;5.70;;;-3.90;62.70;;;;;;5124353;28;20054;-69
2021/03/21 01:11:50;;;;;;;9.23;5.65;;;-3.80;62.70;;;;;;5121803;28;20052;-69
2021/03/21 01:14:21;;;;;;;7.60;6.10;;;-3.80;62.70;;;;;;5123054;28;20051;-70
2021/03/21 01:16:53;;;;;;;7.75;5.72;;;-3.80;62.80;;;;;;5120721;28;20070;-70
2021/03/21 01:19:24;;;;;;;7.45;5.75;;;-3.80;61.70;;;;;;5124090;28;20493;-69
2021/03/21 01:21:57;;;;;;;7.18;5.38;;;-3.70;61.10;;;;;;5123893;28;20051;-69
2021/03/21 01:24:28;;;;;;;7.80;5.63;;;-3.70;61.40;;;;;;5127547;28;20098;-70
2021/03/21 01:27:00;;;;;;;8.07;6.07;;;-3.70;61.40;;;;;;5119962;28;20078;-69
2021/03/21 01:29:31;;;;;;;6.70;5.43;;;-3.70;62.00;;;;;;5126347;28;20989;-69
2021/03/21 01:32:08;;;;;;;9.13;5.72;;;-3.70;61.60;;;;;;5125488;28;20043;-69
2021/03/21 01:34:40;;;;;;;7.28;5.90;;;-3.60;61.20;;;;;;5133792;28;20041;-70
2021/03/21 01:37:11;;;;;;;7.10;5.95;;;-3.60;62.20;;;;;;5127528;28;20746;-69
2021/03/21 01:39:43;;;;;;;7.97;5.93;;;-3.60;62.70;;;;;;5126694;28;20043;-70
2021/03/21 01:42:17;;;;;;;6.85;5.50;;;-3.60;62.40;;;;;;5128808;28;20508;-69
2021/03/21 01:44:54;;;;;;;7.93;6.25;;;-3.50;62.00;;;;;;5129303;28;20047;-70
2021/03/21 01:47:38;;;;;;;8.20;6.28;;;-3.50;60.70;;;;;;5128468;28;20567;-69
2021/03/21 01:50:33;;;;;;;6.80;5.32;;;-3.50;60.70;;;;;;5127353;28;20420;-70
2021/03/21 01:53:06;;;;;;;7.20;5.72;;;-3.60;61.90;;;;;;5127123;28;20131;-70
2021/03/21 01:55:38;;;;;;;8.02;5.88;;;-3.60;61.80;;;;;;5126880;28;20191;-70
2021/03/21 01:58:20;;;;;;;7.07;5.40;;;-3.50;62.30;;;;;;5127285;28;20659;-70
2021/03/21 02:00:53;;;;;;;6.28;5.28;;;-3.50;61.20;;;;;;5127160;28;20043;-69
2021/03/21 02:03:26;;;;;;;8.07;5.72;;;-3.50;61.50;;;;;;5130365;28;20516;-69
2021/03/21 02:06:20;;;;;;;7.18;5.63;;;-3.40;61.10;;;;;;5127970;28;20074;-69
2021/03/21 02:09:05;;;;;;;7.10;5.38;;;-3.40;61.50;;;;;;5124159;28;20138;-69
2021/03/21 02:11:58;;;;;;;7.32;5.68;;;-3.40;61.40;;;;;;5128575;28;20102;-69
2021/03/21 02:14:45;;;;;;;7.30;5.72;;;-3.30;60.90;;;;;;5127081;28;20552;-69
2021/03/21 02:17:34;;;;;;;7.18;5.35;;;-3.30;60.80;;;;;;5127958;28;20050;-70
2021/03/21 02:20:36;;;;;;;8.52;5.78;;;-3.30;61.00;;;;;;5128772;28;20598;-68
2021/03/21 02:23:13;;;;;;;7.30;5.72;;;-3.50;60.80;;;;;;5128125;28;20043;-69
2021/03/21 02:26:03;;;;;;;7.93;5.60;;;-3.60;61.50;;;;;;5125388;28;20047;-69
2021/03/21 02:29:01;;;;;;;7.75;6.07;;;-3.70;62.50;;;;;;5126094;28;20101;-69
2021/03/21 02:31:53;;;;;;;7.78;6.22;;;-3.80;63.80;;;;;;5126765;28;20583;-68
2021/03/21 02:34:24;;;;;;;7.40;5.75;;;-3.80;62.80;;;;;;5127536;28;20055;-69
2021/03/21 02:37:08;;;;;;;8.80;5.60;;;-3.70;62.60;;;;;;5125050;28;20058;-69
2021/03/21 02:39:54;;;;;;;7.95;6.20;;;-3.60;62.90;;;;;;5128313;28;20098;-69
2021/03/21 02:42:32;;;;;;;7.35;5.75;;;-3.50;62.90;;;;;;5126648;28;20071;-69
2021/03/21 02:45:10;;;;;;;7.00;5.40;;;-3.50;62.70;;;;;;5125653;28;20047;-68
2021/03/21 02:47:45;;;;;;;8.30;5.93;;;-3.40;63.00;;;;;;5128514;28;20441;-69
2021/03/21 02:50:32;;;;;;;8.15;6.07;;;-3.30;63.30;;;;;;5127912;28;20054;-69
2021/03/21 02:53:23;;;;;;;8.05;5.68;;;-3.30;63.60;;;;;;5126487;28;20053;-69
2021/03/21 02:55:59;;;;;;;7.45;6.15;;;-3.20;63.40;;;;;;5125985;28;20090;-69
2021/03/21 02:58:44;;;;;;;7.25;5.78;;;-3.20;63.50;;;;;;5125546;28;20043;-69
2021/03/21 03:01:27;;;;;;;6.75;5.60;;;-3.10;63.40;;;;;;5128095;28;20524;-70
2021/03/21 03:04:06;;;;;;;8.35;5.93;;;-3.20;62.50;;;;;;5124135;28;20035;-70
2021/03/21 03:06:43;;;;;;;6.93;5.75;;;-3.20;63.30;;;;;;5123957;28;20063;-69
2021/03/21 03:09:25;;;;;;;7.28;5.43;;;-3.30;63.00;;;;;;5128872;28;20374;-69
2021/03/21 03:12:33;;;;;;;7.40;5.57;;;-3.30;62.90;;;;;;5126302;28;20716;-69
2021/03/21 03:15:07;;;;;;;7.40;5.72;;;-3.20;61.50;;;;;;5122817;28;20512;-69
2021/03/21 03:17:41;;;;;;;7.40;6.10;;;-3.20;61.80;;;;;;5133688;28;20047;-69
2021/03/21 03:20:27;;;;;;;7.43;6.03;;;-3.20;63.10;;;;;;5124430;28;20043;-69
2021/03/21 03:23:01;;;;;;;7.47;5.70;;;-3.10;63.10;;;;;;5123129;28;20059;-70
2021/03/21 03:25:42;;;;;;;8.30;5.90;;;-3.10;63.60;;;;;;5129096;28;20078;-69
2021/03/21 03:28:38;;;;;;;7.30;5.78;;;-3.00;62.90;;;;;;5124166;28;20062;-69
2021/03/21 03:31:25;;;;;;;7.57;5.90;;;-3.00;63.70;;;;;;5126863;28;20051;-69
2021/03/21 03:33:57;;;;;;;8.05;6.30;;;-3.00;63.90;;;;;;5126810;28;20055;-69
2021/03/21 03:36:28;;;;;;;6.57;5.30;;;-3.00;63.80;;;;;;5125241;28;20055;-69
2021/03/21 03:39:00;;;;;;;6.95;5.55;;;-3.00;63.40;;;;;;5126339;28;20042;-65
2021/03/21 03:41:43;;;;;;;7.53;5.30;;;-2.90;64.10;;;;;;5129048;28;20186;-64
2021/03/21 03:44:17;;;;;;;7.22;5.80;;;-3.00;64.10;;;;;;5127183;28;20043;-65
2021/03/21 03:46:51;;;;;;;7.45;5.68;;;-2.90;63.70;;;;;;5123787;28;20572;-65
2021/03/21 03:49:43;;;;;;;7.25;5.32;;;-3.00;63.10;;;;;;5128820;28;20138;-65
2021/03/21 03:52:37;;;;;;;6.95;5.30;;;-3.00;62.60;;;;;;5124571;28;20042;-66
2021/03/21 03:55:27;;;;;;;9.15;6.25;;;-3.00;63.50;;;;;;5122964;28;20101;-67
2021/03/21 03:58:03;;;;;;;;;;;-3.10;65.40;;;;;;5127424;28;20468;-66
2021/03/21 04:00:42;;;;;;;9.18;6.25;;;-3.30;66.60;;;;;;5127372;28;19933;-66
2021/03/21 04:03:19;;;;;;;8.60;6.78;;;-3.40;66.40;;;;;;5124838;28;20389;-66
2021/03/21 04:06:00;;;;;;;8.90;6.72;;;-3.60;65.90;;;;;;5126249;28;20098;-67
2021/03/21 04:09:00;;;;;;;7.82;6.53;;;-3.60;66.20;;;;;;5125327;28;20043;-66
2021/03/21 04:11:48;;;;;;;8.35;6.25;;;-3.60;66.00;;;;;;5128552;28;20583;-67
2021/03/21 04:14:30;;;;;;;8.98;6.93;;;-3.70;66.20;;;;;;5127607;28;20043;-66
2021/03/21 04:17:27;;;;;;;6.95;5.40;;;-3.70;66.20;;;;;;5119883;28;20524;-66
2021/03/21 04:20:09;;;;;;;8.65;6.28;;;-3.70;66.80;;;;;;5124313;28;20047;-66
2021/03/21 04:22:54;;;;;;;7.45;5.97;;;-3.80;66.30;;;;;;5126428;28;20156;-67
2021/03/21 04:25:31;;;;;;;7.90;6.18;;;-3.70;67.10;;;;;;5123588;28;20079;-66
2021/03/21 04:28:12;;;;;;;6.20;5.55;;;-3.70;66.20;;;;;;5125812;28;20067;-67
2021/03/21 04:30:57;;;;;;;7.18;6.10;;;-3.60;66.70;;;;;;5127219;28;20082;-67
2021/03/21 04:33:36;;;;;;;6.75;5.60;;;-3.60;67.10;;;;;;5129810;28;20777;-67
2021/03/21 04:36:16;;;;;;;6.65;5.60;;;-3.60;66.80;;;;;;5124647;28;20769;-67
2021/03/21 04:39:00;;;;;;;9.00;5.75;;;-3.60;66.30;;;;;;5121548;28;20043;-68
2021/03/21 04:41:48;;;;;;;8.20;5.38;;;-3.50;65.60;;;;;;5123529;28;20086;-67
2021/03/21 04:44:31;;;;;;;8.20;5.28;;;-3.50;65.60;;;;;;5130557;28;20122;-66
2021/03/21 04:47:09;;;;;;;7.55;5.43;;;-3.50;65.60;;;;;;5127626;28;20070;-68
2021/03/21 04:49:41;;;;;;;7.07;5.25;;;-3.50;65.90;;;;;;5127828;28;20123;-67
2021/03/21 04:52:20;;;;;;;6.32;5.40;;;-3.40;64.70;;;;;;5124656;28;20039;-67
2021/03/21 04:54:54;;;;;;;7.13;5.53;;;-3.40;64.50;;;;;;5125268;28;20070;-68
2021/03/21 04:57:35;;;;;;;6.18;5.07;;;-3.40;64.30;;;;;;5123232;28;20047;-67
2021/03/21 05:00:19;;;;;;;7.70;6.15;;;-3.40;64.10;;;;;;5125631;28;20118;-67
2021/03/21 05:02:56;;;;;;;7.97;6.00;;;-3.40;64.00;;;;;;5132697;28;20047;-67
2021/03/21 05:05:31;;;;;;;7.40;6.05;;;-3.40;64.80;;;;;;5127774;28;20099;-67
2021/03/21 05:08:26;;;;;;;7.75;6.03;;;-3.50;65.70;;;;;;5132621;28;20452;-66
2021/03/21 05:11:01;;;;;;;7.32;5.93;;;-3.50;66.30;;;;;;5128241;28;20065;-66
2021/03/21 05:13:43;;;;;;;7.22;5.95;;;-3.50;66.20;;;;;;5128501;28;20153;-65
2021/03/21 05:16:18;;;;;;;6.60;5.70;;;-3.50;65.80;;;;;;5127670;28;20586;-66
2021/03/21 05:19:04;;;;;;;7.60;5.80;;;-3.40;65.70;;;;;;5129829;28;20050;-66
2021/03/21 05:22:07;;;;;;;7.00;6.10;;;-3.40;65.10;;;;;;5128559;28;20464;-66
2021/03/21 05:24:45;;;;;;;9.30;6.72;;;-3.30;65.20;;;;;;5103437;28;20086;-68
2021/03/21 05:27:24;;;;;;;7.57;6.70;;;-3.30;65.00;;;;;;5129182;28;20049;-65
2021/03/21 05:30:11;;;;;;;7.50;5.97;;;-3.30;65.20;;;;;;5130422;28;20094;-67
2021/03/21 05:32:47;;;;;;;8.07;6.05;;;-3.20;64.40;;;;;;5128891;28;20110;-66
2021/03/21 05:35:24;;;;;;;8.05;6.30;;;-3.30;64.90;;;;;;5131512;28;20051;-66
2021/03/21 05:38:11;;;;;;;7.97;6.32;;;-3.30;65.00;;;;;;5128670;28;20047;-66
2021/03/21 05:40:54;;;;;;;9.65;6.28;;;-3.50;66.20;;;;;;5126434;28;20051;-67
2021/03/21 05:43:43;;;;;;;7.18;6.07;;;-3.50;66.40;;;;;;5126317;28;20445;-66
2021/03/21 05:46:20;;;;;;;9.17;6.40;;;-3.60;65.80;;;;;;5126920;28;20057;-66
2021/03/21 05:49:07;;;;;;;7.85;6.30;;;-3.50;66.50;;;;;;5130906;28;20397;-67
2021/03/21 05:52:00;;;;;;;7.03;5.65;;;-3.50;66.00;;;;;;5128204;28;20043;-66
2021/03/21 05:54:59;;;;;;;7.38;5.82;;;-3.50;66.00;;;;;;5130059;28;20074;-66
2021/03/21 05:58:21;;;;;;;6.78;5.25;;;-3.50;65.80;;;;;;5133194;28;20050;-66
2021/03/21 06:01:20;;;;;;;7.18;6.03;;;-3.50;65.60;;;;;;5102644;29;20071;-66
2021/03/21 06:04:13;;;;;;;6.95;5.55;;;-3.50;65.30;;;;;;5102192;29;20098;-67
2021/03/21 06:07:27;;;;;;;7.15;5.70;;;-3.40;65.60;;;;;;5122535;28;20114;-68
2021/03/21 06:10:21;;;;;;;7.10;5.85;;;-3.30;65.00;;;;;;5120101;28;20136;-67
2021/03/21 06:13:31;;;;;;;6.00;4.90;;;-3.30;64.90;;;;;;5128581;28;20117;-67
2021/03/21 06:16:22;;;;;;;;;;;-3.30;63.50;;;;;;5112355;28;20843;-67
2021/03/21 06:19:12;;;;;;;7.00;5.40;;;-3.20;64.60;;;;;;5130253;28;20745;-68
2021/03/21 06:22:04;;;;;;;5.80;5.20;;;-3.10;63.50;;;;;;5128016;28;20051;-67
2021/03/21 06:24:51;;;;;;;6.13;5.20;;;-3.00;63.30;;;;;;5123545;28;20575;-66
2021/03/21 06:27:43;;;;;;;5.97;5.00;;;-2.90;62.60;;;;;;5123596;28;20059;-67
2021/03/21 06:30:22;;;;;;;6.60;5.63;;;-2.80;62.70;;;;;;5128667;28;20051;-67
2021/03/21 06:33:11;;;;;;;7.68;5.57;;;-2.80;62.90;;;;;;5130049;28;20547;-67
2021/03/21 06:36:10;;;;;;;7.57;5.50;;;-2.70;61.50;;;;;;5128649;28;20061;-67
2021/03/21 06:39:06;;;;;;;6.40;5.40;;;-2.70;61.30;;;;;;5126683;28;20051;-67
2021/03/21 06:41:49;;;;;;;7.40;6.07;;;-2.70;62.10;;;;;;5122883;28;20114;-67
2021/03/21 06:44:28;;;;;;;7.38;5.90;;;-2.70;62.30;;;;;;5126480;28;20050;-67
2021/03/21 06:47:21;;;;;;;7.13;5.93;;;-2.70;63.30;;;;;;5124087;28;20055;-67
2021/03/21 06:50:27;;;;;;;10.27;5.82;;;-2.60;63.20;;;;;;5125479;28;20042;-68
2021/03/21 06:53:20;;;;;;;7.45;6.13;;;-2.70;63.50;;;;;;5128347;28;20813;-66
2021/03/21 06:56:25;;;;;;;7.63;6.18;;;-3.00;63.90;;;;;;5125454;28;20047;-67
2021/03/21 06:59:09;;;;;;;7.22;5.97;;;-3.00;63.70;;;;;;5103584;28;602487;-66
2021/03/21 07:01:41;;;;;;;9.13;6.18;;;-2.90;64.00;;;;;;5122861;28;20630;-67
2021/03/21 07:04:51;;;;;;;8.65;7.30;;;-2.70;62.90;;;;;;5126658;28;20046;-67
2021/03/21 07:07:40;;;;;;;8.40;6.97;;;-2.50;63.20;;;;;;5125491;28;20105;-68
2021/03/21 07:10:59;;;;;;;7.63;5.95;;;-2.20;63.90;;;;;;5122647;28;20370;-67
2021/03/21 07:14:19;;;;;;;6.90;6.20;;;-2.10;61.40;;;;;;5098406;28;20051;-67
2021/03/21 07:17:09;;;;;;;7.60;6.20;;;-2.00;59.80;;;;;;5131446;28;20071;-67
2021/03/21 07:20:18;;;;;;;7.45;5.70;;;-2.10;58.80;;;;;;5124322;28;20462;-68
2021/03/21 07:23:05;;;;;;;8.07;6.20;;;-2.20;59.30;;;;;;5133161;28;20074;-67
2021/03/21 07:25:46;;;;;;;8.15;6.50;;;-2.00;59.60;;;;;;5132553;28;20055;-68
2021/03/21 07:28:26;;;;;;;8.02;6.75;;;-1.90;60.80;;;;;;5122906;28;20462;-68
2021/03/21 07:31:30;;;;;;;8.88;7.53;;;-1.70;61.20;;;;;;5129707;28;20046;-66
2021/03/21 07:34:35;;;;;;;8.75;7.25;;;-1.50;60.40;;;;;;5119990;28;20121;-68
2021/03/21 07:37:31;;;;;;;9.20;6.85;;;-1.40;59.90;;;;;;5122077;28;20500;-68
2021/03/21 07:40:15;;;;;;;7.75;6.70;;;-1.30;60.50;;;;;;5123288;28;20130;-68
2021/03/21 07:43:20;;;;;;;9.05;6.75;;;-1.30;60.80;;;;;;5124649;28;20079;-66
2021/03/21 07:46:17;;;;;;;7.82;7.00;;;-1.40;61.10;;;;;;5125597;28;20125;-67
2021/03/21 07:49:06;;;;;;;8.05;6.80;;;-1.40;61.00;;;;;;5124690;28;20043;-67
2021/03/21 07:52:05;;;;;;;7.38;6.57;;;-1.40;60.10;;;;;;5126171;28;20047;-66
2021/03/21 07:54:40;;;;;;;8.55;6.85;;;-1.50;61.00;;;;;;5125218;28;20042;-66
2021/03/21 07:57:22;;;;;;;7.65;6.38;;;-1.50;60.90;;;;;;5123178;28;20061;-67
2021/03/21 07:59:54;;;;;;;7.45;6.28;;;-1.60;60.10;;;;;;5124271;28;20105;-66
2021/03/21 08:02:30;;;;;;;8.38;6.95;;;-1.50;58.80;;;;;;5124533;28;20054;-67
2021/03/21 08:05:07;;;;;;;7.90;6.70;;;-1.30;59.00;;;;;;5124833;28;21709;-66
2021/03/21 08:07:42;;;;;;;8.95;7.43;;;-1.10;58.90;;;;;;5126384;28;20533;-67
2021/03/21 08:10:23;;;;;;;7.47;6.70;;;-1.00;57.80;;;;;;5124783;28;20039;-67
2021/03/21 08:13:11;;;;;;;7.05;6.35;;;-1.00;57.80;;;;;;5125449;28;20497;-67
2021/03/21 08:15:43;;;;;;;8.40;7.15;;;-0.90;58.50;;;;;;5121688;28;20161;-66
2021/03/21 08:18:22;;;;;;;7.80;7.00;;;-0.90;57.80;;;;;;5123378;28;20066;-66
2021/03/21 08:21:00;;;;;;;7.07;6.37;;;-0.80;57.00;;;;;;5118858;28;20043;-67
2021/03/21 08:23:39;;;;;;;9.52;6.95;;;-0.70;56.60;;;;;;5125539;28;20067;-67
2021/03/21 08:26:14;;;;;;;8.00;7.20;;;-0.70;55.90;;;;;;5124176;28;20186;-67
2021/03/21 08:29:00;;;;;;;7.40;6.70;;;-0.60;56.40;;;;;;5124115;28;20074;-68
2021/03/21 08:32:00;;;;;;;7.88;7.07;;;-0.60;57.20;;;;;;5123989;28;20042;-67
2021/03/21 08:34:43;;;;;;;9.93;7.97;;;-0.40;58.00;;;;;;5121652;28;20525;-66
2021/03/21 08:37:20;;;;;;;9.55;8.57;;;-0.10;58.30;;;;;;5123166;28;20043;-66
2021/03/21 08:40:16;;;;;;;9.85;8.48;;;0.20;55.60;;;;;;5124093;28;20046;-66
2021/03/21 08:42:50;;;;;;;9.30;8.25;;;0.30;56.50;;;;;;5122957;28;20209;-66
2021/03/21 08:46:04;;;;;;;9.07;7.45;;;0.50;54.80;;;;;;5124379;28;20051;-66
2021/03/21 08:48:38;;;;;;;9.00;7.53;;;0.70;55.20;;;;;;5125443;28;20046;-66
2021/03/21 08:51:12;;;;;;;8.35;7.50;;;0.80;53.60;;;;;;5123653;28;20522;-66
2021/03/21 08:54:20;;;;;;;8.52;7.70;;;0.70;53.00;;;;;;5124763;28;20078;-67
2021/03/21 08:56:57;;;;;;;8.57;7.68;;;0.60;52.70;;;;;;5123760;28;20158;-67
2021/03/21 08:59:36;;;;;;;9.68;7.40;;;0.70;54.00;;;;;;5124578;28;20105;-65
2021/03/21 09:02:17;;;;;;;11.25;8.85;;;0.80;52.10;;;;;;5126049;28;20125;-68
2021/03/21 09:05:01;;;;;;;10.80;8.52;;;0.80;53.00;;;;;;5123793;28;20046;-66
2021/03/21 09:07:34;;;;;;;8.60;7.40;;;1.00;50.90;;;;;;5126903;28;20047;-66
2021/03/21 09:10:12;;;;;;;7.60;6.82;;;0.70;50.60;;;;;;5124733;28;20054;-67
2021/03/21 09:12:49;;;;;;;9.65;8.40;;;0.40;51.40;;;;;;5125549;28;20149;-67
2021/03/21 09:15:39;;;;;;;12.73;9.10;;;0.40;51.80;;;;;;5127626;28;20062;-68
2021/03/21 09:18:20;;;;;;;13.13;10.18;;;0.60;52.40;;;;;;5123084;28;20039;-68
2021/03/21 09:21:15;;;;;;;11.32;9.80;;;0.80;52.20;;;;;;5121234;28;20151;-67
2021/03/21 09:24:09;;;;;;;10.20;7.80;;;1.00;51.20;;;;;;5122079;28;20086;-68
2021/03/21 09:26:45;;;;;;;8.48;7.13;;;1.10;48.60;;;;;;5123269;28;20126;-68
2021/03/21 09:29:29;;;;;;;8.68;7.57;;;1.00;50.20;;;;;;5122974;28;20063;-67
2021/03/21 09:32:04;;;;;;;7.30;6.60;;;1.10;48.80;;;;;;5122622;28;20075;-68
2021/03/21 09:34:56;;;;;;;7.60;6.70;;;1.10;47.60;;;;;;5125359;28;20051;-68
2021/03/21 09:37:55;;;;;;;7.75;7.03;;;1.20;50.10;;;;;;5123622;28;20054;-66
2021/03/21 09:40:34;;;;;;;8.57;7.55;;;1.20;46.80;;;;;;5124766;28;20055;-67
2021/03/21 09:43:14;;;;;;;8.63;7.03;;;1.10;48.80;;;;;;5123371;28;20751;-65
2021/03/21 09:45:50;;;;;;;9.55;8.65;;;1.10;49.30;;;;;;5125070;28;20035;-65
2021/03/21 09:48:37;;;;;;;10.75;8.30;;;1.10;49.00;;;;;;5123029;28;20097;-65
2021/03/21 09:51:13;;;;;;;8.60;7.78;;;1.00;49.50;;;;;;5128838;28;20042;-65
2021/03/21 09:54:01;;;;;;;9.48;8.57;;;1.10;49.20;;;;;;5128452;28;20038;-65
2021/03/21 09:56:44;;;;;;;9.07;8.18;;;1.10;50.30;;;;;;5129245;28;20680;-65
2021/03/21 09:59:33;;;;;;;9.63;8.65;;;1.40;50.90;;;;;;5129018;28;20043;-64
2021/03/21 10:02:21;;;;;;;8.73;7.83;;;1.50;51.00;;;;;;5129893;28;20055;-64
2021/03/21 10:05:05;;;;;;;9.30;7.70;;;1.70;50.10;;;;;;5125762;28;20098;-64
2021/03/21 10:07:54;;;;;;;8.40;7.53;;;1.60;48.60;;;;;;5128789;28;20114;-65
2021/03/21 10:10:40;;;;;;;9.43;8.40;;;1.70;50.00;;;;;;5127826;28;20130;-65
2021/03/21 10:13:38;;;;;;;8.68;7.78;;;1.80;48.20;;;;;;5128912;28;20042;-65
2021/03/21 10:16:15;;;;;;;10.70;7.93;;;1.80;49.90;;;;;;5128328;28;20070;-65
2021/03/21 10:19:01;;;;;;;9.10;8.23;;;1.90;49.60;;;;;;5127759;28;20421;-67
2021/03/21 10:21:33;;;;;;;9.05;7.82;;;2.00;48.90;;;;;;5127852;28;20469;-65
2021/03/21 10:24:12;;;;;;;8.75;7.93;;;2.00;48.90;;;;;;5128508;28;20121;-64
2021/03/21 10:27:15;;;;;;;8.50;7.70;;;1.90;49.20;;;;;;5126141;28;20134;-65
2021/03/21 10:30:16;;;;;;;8.75;7.53;;;1.80;49.10;;;;;;5124541;28;20137;-66
2021/03/21 10:33:00;;;;;;;8.25;7.45;;;1.70;49.00;;;;;;5126353;28;20055;-65
2021/03/21 10:35:32;;;;;;;9.35;7.65;;;1.70;48.80;;;;;;5123370;28;20052;-64
2021/03/21 10:38:04;;;;;;;11.40;8.90;;;1.80;48.20;;;;;;5127518;28;20133;-65
2021/03/21 10:40:40;;;;;;;9.27;8.35;;;2.00;49.50;;;;;;5123970;28;20066;-65
2021/03/21 10:43:18;;;;;;;8.45;7.65;;;2.00;48.50;;;;;;5128338;28;20137;-64
2021/03/21 10:45:52;;;;;;;8.98;8.07;;;1.90;47.60;;;;;;5125103;28;20043;-65
2021/03/21 10:48:26;;;;;;;8.27;7.50;;;1.80;46.70;;;;;;5124337;28;20122;-65
2021/03/21 10:51:04;;;;;;;7.88;7.07;;;1.60;47.30;;;;;;5139058;28;20501;-65
2021/03/21 10:54:00;;;;;;;8.48;7.68;;;1.60;49.50;;;;;;5129605;28;20539;-65
2021/03/21 10:56:31;;;;;;;9.13;8.23;;;1.60;49.10;;;;;;5118997;28;20583;-65
2021/03/21 10:59:21;;;;;;;8.30;7.50;;;1.70;49.80;;;;;;5126408;28;20047;-65
2021/03/21 11:02:23;;;;;;;8.95;7.32;;;1.80;49.40;;;;;;5129140;28;20057;-67
2021/03/21 11:05:04;;;;;;;8.80;7.93;;;1.90;49.60;;;;;;5125991;28;20039;-65
2021/03/21 11:07:35;;;;;;;8.18;7.38;;;2.10;50.70;;;;;;5122762;28;20129;-66
2021/03/21 11:10:08;;;;;;;8.32;7.53;;;2.10;50.10;;;;;;5125012;28;20081;-64
2021/03/21 11:12:42;;;;;;;8.68;7.78;;;2.10;49.50;;;;;;5125594;28;20394;-66
2021/03/21 11:15:59;;;;;;;7.78;6.97;;;2.10;51.40;;;;;;5123065;28;20513;-66
2021/03/21 11:18:33;;;;;;;8.00;7.30;;;2.20;51.10;;;;;;5120872;28;20066;-66
2021/03/21 11:21:08;;;;;;;8.02;7.22;;;2.40;50.80;;;;;;5128914;28;20902;-65
2021/03/21 11:23:42;;;;;;;7.95;7.15;;;2.50;51.20;;;;;;5131428;28;20126;-65
2021/03/21 11:26:24;;;;;;;7.47;6.78;;;2.60;50.70;;;;;;5124015;28;20501;-63
2021/03/21 11:29:01;;;;;;;8.65;7.00;;;2.70;51.50;;;;;;5126100;28;20035;-64
2021/03/21 11:31:48;;;;;;;8.30;7.40;;;2.80;52.00;;;;;;5126265;28;20050;-65
2021/03/21 11:34:25;;;;;;;10.25;8.35;;;2.90;52.20;;;;;;5127491;28;20054;-64
2021/03/21 11:37:01;;;;;;;8.38;7.57;;;3.00;52.20;;;;;;5125838;28;20521;-66
2021/03/21 11:39:55;;;;;;;9.18;7.68;;;3.10;51.80;;;;;;5124238;28;20459;-64
2021/03/21 11:42:37;;;;;;;8.45;7.63;;;3.10;51.80;;;;;;5128086;28;20134;-64
2021/03/21 11:45:20;;;;;;;9.32;8.32;;;3.20;51.00;;;;;;5126099;28;20146;-64
2021/03/21 11:48:13;;;;;;;9.00;8.10;;;3.20;51.70;;;;;;5126924;28;20524;-67
2021/03/21 11:50:46;;;;;;;10.88;7.75;;;3.30;52.80;;;;;;5126821;28;20070;-65
2021/03/21 11:53:21;;;;;;;9.00;8.02;;;3.30;52.00;;;;;;5122818;28;20129;-64
2021/03/21 11:56:10;;;;;;;9.27;8.32;;;3.20;53.30;;;;;;5126080;28;20205;-64
2021/03/21 11:58:55;;;;;;;8.35;7.55;;;3.30;53.60;;;;;;5124134;28;20046;-66
2021/03/21 12:01:39;;;;;;;9.90;7.75;;;3.40;53.40;;;;;;5123148;28;21054;-66
2021/03/21 12:04:24;;;;;;;8.18;7.15;;;3.40;53.80;;;;;;5122964;28;20086;-66
2021/03/21 12:07:00;;;;;;;8.55;7.07;;;3.50;55.20;;;;;;5122936;28;20049;-68
2021/03/21 12:09:47;;;;;;;9.02;7.53;;;3.60;55.10;;;;;;5123880;28;20074;-65
2021/03/21 12:12:48;;;;;;;8.52;7.38;;;3.70;55.00;;;;;;5123528;28;20034;-65
2021/03/21 12:15:28;;;;;;;8.52;7.28;;;3.70;55.80;;;;;;5113595;28;20083;-66
2021/03/21 12:18:01;;;;;;;8.38;7.45;;;3.80;55.00;;;;;;5124661;28;20082;-65
2021/03/21 12:20:38;;;;;;;8.68;7.75;;;3.80;55.90;;;;;;5125845;28;20043;-66
2021/03/21 12:23:35;;;;;;;8.80;7.32;;;3.90;56.30;;;;;;5126086;28;20038;-66
2021/03/21 12:26:19;;;;;;;8.45;7.57;;;4.00;56.60;;;;;;5106885;28;20043;-66
2021/03/21 12:29:21;;;;;;;8.27;7.47;;;4.10;56.50;;;;;;5127472;28;20071;-66
2021/03/21 12:31:55;;;;;;;9.30;7.70;;;4.10;55.50;;;;;;5123337;28;20043;-65
2021/03/21 12:34:33;;;;;;;9.10;7.85;;;4.00;56.70;;;;;;5125603;28;20062;-65
2021/03/21 12:37:10;;;;;;;9.85;8.75;;;4.10;56.10;;;;;;5125376;28;20043;-68
2021/03/21 12:39:52;;;;;;;8.85;7.93;;;3.90;56.20;;;;;;5125295;28;20490;-67
2021/03/21 12:42:26;;;;;;;9.18;8.27;;;3.70;56.70;;;;;;5125654;28;20059;-65
2021/03/21 12:45:09;;;;;;;10.27;8.90;;;3.60;58.20;;;;;;5129511;28;20046;-66
2021/03/21 12:47:55;;;;;;;8.80;7.65;;;3.50;58.90;;;;;;5124282;28;20190;-66
2021/03/21 12:50:39;;;;;;;9.15;8.20;;;3.50;58.70;;;;;;5127377;28;20054;-66
2021/03/21 12:53:27;;;;;;;9.00;8.00;;;3.50;58.90;;;;;;5124404;28;20043;-67
2021/03/21 12:56:03;;;;;;;8.50;7.60;;;3.40;59.00;;;;;;5124558;28;20218;-67
2021/03/21 12:58:34;;;;;;;9.07;8.18;;;3.50;59.20;;;;;;5123838;28;20102;-66
2021/03/21 13:01:06;;;;;;;8.60;7.80;;;3.50;59.70;;;;;;5122926;28;20039;-67
2021/03/21 13:03:37;;;;;;;9.32;7.88;;;3.50;59.50;;;;;;5125960;28;20049;-67
2021/03/21 13:06:10;;;;;;;8.65;7.85;;;3.50;59.20;;;;;;5123839;28;20043;-66
2021/03/21 13:08:41;;;;;;;8.93;8.05;;;3.40;59.50;;;;;;5122354;28;20036;-67
2021/03/21 13:11:13;;;;;;;8.50;7.70;;;3.40;60.10;;;;;;5125615;28;20141;-67
2021/03/21 13:13:44;;;;;;;8.75;7.95;;;3.30;60.40;;;;;;5121738;28;20054;-67
2021/03/21 13:16:17;;;;;;;8.02;7.13;;;3.20;60.80;;;;;;5125730;28;20047;-67
2021/03/21 13:18:49;;;;;;;8.43;6.95;;;3.10;60.60;;;;;;5129750;28;20518;-66
2021/03/21 13:21:23;;;;;;;9.18;7.38;;;3.00;61.60;;;;;;5123589;28;20047;-67
2021/03/21 13:23:55;;;;;;;10.20;8.18;;;3.00;61.60;;;;;;5119042;28;20043;-68
2021/03/21 13:26:26;;;;;;;11.90;10.65;;;2.90;62.80;;;;;;5123220;28;20580;-67
2021/03/21 13:28:58;;;;;;;18.88;14.48;;;2.80;62.80;;;;;;5126229;28;20104;-67
2021/03/21 13:31:29;;;;;;;12.25;10.65;;;2.80;62.60;;;;;;5125655;28;20047;-66
2021/03/21 13:34:01;;;;;;;8.52;7.72;;;2.90;62.30;;;;;;5132830;28;20069;-66
2021/03/21 13:36:33;;;;;;;11.15;8.68;;;2.90;62.30;;;;;;5124815;28;20079;-66
2021/03/21 13:39:04;;;;;;;9.82;8.20;;;3.00;62.10;;;;;;5122277;28;20055;-69
2021/03/21 13:41:37;;;;;;;8.82;7.93;;;3.00;62.20;;;;;;5128043;28;20054;-66
2021/03/21 13:44:08;;;;;;;8.43;7.63;;;3.00;61.30;;;;;;5130261;28;20039;-67
2021/03/21 13:46:40;;;;;;;8.70;7.80;;;3.00;61.10;;;;;;5124184;28;20078;-65
2021/03/21 13:49:11;;;;;;;8.07;7.25;;;3.00;62.20;;;;;;5125319;28;20039;-66
2021/03/21 13:51:43;;;;;;;9.02;7.75;;;2.90;61.20;;;;;;5124208;28;20047;-66
2021/03/21 13:54:17;;;;;;;8.63;7.78;;;3.00;61.40;;;;;;5125135;28;20472;-66
2021/03/21 13:56:48;;;;;;;9.23;8.00;;;3.00;62.20;;;;;;5125319;28;20481;-65
2021/03/21 13:59:20;;;;;;;10.00;8.85;;;3.00;61.70;;;;;;5101667;28;20069;-66
2021/03/21 14:01:51;;;;;;;9.85;8.45;;;3.10;61.90;;;;;;5126349;28;20737;-66
2021/03/21 14:04:23;;;;;;;16.17;11.20;;;3.10;61.60;;;;;;5125684;28;20134;-65
2021/03/21 14:06:55;;;;;;;12.25;8.93;;;3.00;62.20;;;;;;5125021;28;20070;-66